createdAt,value
2022-08-26T00:00:39.677Z,8.32
2022-08-26T00:05:44.537Z,10.70
2022-08-26T00:10:49.663Z,8.05
2022-08-26T00:15:54.685Z,6.65
2022-08-26T00:20:58.144Z,12.48
2022-08-26T00:26:02.499Z,13.80
2022-08-26T00:31:07.368Z,12.93
2022-08-26T00:36:19.977Z,8.73
2022-08-26T00:41:23.955Z,6.43
2022-08-26T00:46:32.781Z,9.50
2022-08-26T00:51:43.921Z,8.07
2022-08-26T00:56:53.029Z,10.82
2022-08-26T01:01:58.249Z,12.07
2022-08-26T01:07:02.211Z,8.18
2022-08-26T01:12:06.897Z,6.97
2022-08-26T01:17:12.010Z,7.93
2022-08-26T01:22:19.398Z,7.35
2022-08-26T01:27:27.467Z,6.40
2022-08-26T01:32:36.834Z,6.18
2022-08-26T01:37:42.716Z,8.70
2022-08-26T01:42:49.248Z,8.88
2022-08-26T01:47:56.907Z,5.88
2022-08-26T01:53:05.990Z,4.45
2022-08-26T01:58:15.014Z,6.80
2022-08-26T02:03:21.771Z,4.13
2022-08-26T02:08:29.546Z,4.88
2022-08-26T02:13:39.631Z,11.30
2022-08-26T02:18:45.154Z,8.55
2022-08-26T02:23:52.175Z,10.32
2022-08-26T02:29:01.342Z,7.93
2022-08-26T02:34:11.774Z,10.77
2022-08-26T02:39:19.558Z,8.48
2022-08-26T02:44:27.562Z,8.85
2022-08-26T02:49:31.032Z,10.90
2022-08-26T02:54:34.391Z,11.48
2022-08-26T02:59:40.132Z,8.60
2022-08-26T03:04:58.074Z,7.45
2022-08-26T03:10:08.799Z,7.22
2022-08-26T03:15:17.883Z,12.05
2022-08-26T03:20:21.562Z,4.72
2022-08-26T03:25:26.313Z,6.50
2022-08-26T03:30:45.768Z,16.60
2022-08-26T03:35:50.602Z,8.05
2022-08-26T03:40:54.372Z,7.35
2022-08-26T03:45:59.227Z,5.97
2022-08-26T03:51:03.259Z,7.78
2022-08-26T03:56:07.940Z,14.07
2022-08-26T04:01:13.678Z,15.35
2022-08-26T04:06:19.945Z,17.77
2022-08-26T04:11:26.885Z,15.23
2022-08-26T04:16:32.549Z,13.80
2022-08-26T04:21:38.367Z,18.67
2022-08-26T04:26:43.879Z,15.15
2022-08-26T04:31:49.356Z,8.43
2022-08-26T04:36:53.284Z,18.98
2022-08-26T04:41:57.826Z,14.18
2022-08-26T04:47:03.493Z,16.85
2022-08-26T04:52:07.214Z,18.60
2022-08-26T04:57:11.225Z,27.35
2022-08-26T05:02:16.112Z,17.13
2022-08-26T05:07:19.621Z,16.27
2022-08-26T05:12:23.405Z,15.55
2022-08-26T05:17:28.805Z,17.30
2022-08-26T05:22:32.364Z,20.50
2022-08-26T05:27:35.772Z,17.40
2022-08-26T05:32:42.013Z,12.05
2022-08-26T05:37:45.592Z,13.60
2022-08-26T05:42:49.050Z,23.67
2022-08-26T05:47:54.188Z,13.93
2022-08-26T05:52:59.218Z,17.40
2022-08-26T05:58:02.876Z,16.98
2022-08-26T06:03:08.474Z,15.38
2022-08-26T06:08:15.262Z,17.58
2022-08-26T06:13:25.660Z,22.63
2022-08-26T06:18:35.512Z,14.93
2022-08-26T06:23:56.530Z,13.18
2022-08-26T06:29:00.205Z,10.88
2022-08-26T06:34:10.761Z,12.65
2022-08-26T06:39:17.115Z,9.00
2022-08-26T06:44:21.570Z,11.35
2022-08-26T06:49:27.785Z,11.75
2022-08-26T06:54:31.952Z,13.60
2022-08-26T06:59:35.490Z,12.88
2022-08-26T07:04:40.967Z,18.92
2022-08-26T07:09:45.965Z,9.85
2022-08-26T07:14:50.675Z,15.10
2022-08-26T07:19:55.661Z,16.58
2022-08-26T07:24:59.156Z,9.52
2022-08-26T07:30:03.117Z,10.38
2022-08-26T07:35:09.762Z,13.43
2022-08-26T07:40:13.330Z,11.80
2022-08-26T07:45:21.313Z,15.82
2022-08-26T07:50:49.355Z,12.00
2022-08-26T07:55:51.620Z,13.05
2022-08-26T08:00:55.632Z,11.43
2022-08-26T08:06:01.314Z,17.00
2022-08-26T08:11:04.911Z,13.73
2022-08-26T08:16:12.526Z,18.55
2022-08-26T08:21:21.842Z,13.15
2022-08-26T08:26:27.640Z,13.23
2022-08-26T08:36:59.738Z,16.60
2022-08-26T08:42:38.111Z,14.38
2022-08-26T08:47:45.799Z,9.80
2022-08-26T08:52:57.106Z,11.52
2022-08-26T08:58:05.166Z,10.07
2022-08-26T09:03:17.098Z,14.90
2022-08-26T09:08:28.402Z,16.55
2022-08-26T09:13:32.048Z,8.18
2022-08-26T09:18:56.511Z,14.05
2022-08-26T09:24:01.693Z,17.90
2022-08-26T09:29:08.895Z,13.27
2022-08-26T09:34:18.066Z,15.27
2022-08-26T09:39:38.042Z,16.20
2022-08-26T09:44:56.771Z,9.48
2022-08-26T09:50:09.526Z,14.88
2022-08-26T09:55:22.966Z,13.43
2022-08-26T10:00:32.873Z,19.83
2022-08-26T10:05:46.464Z,19.92
2022-08-26T10:10:53.082Z,15.73
2022-08-26T10:16:15.961Z,15.77
2022-08-26T10:21:23.945Z,8.35
2022-08-26T10:26:36.848Z,17.52
2022-08-26T10:31:43.189Z,11.40
2022-08-26T10:37:14.568Z,12.98
2022-08-26T10:42:29.217Z,15.05
2022-08-26T10:47:39.684Z,13.60
2022-08-26T10:52:59.185Z,16.67
2022-08-26T10:58:26.143Z,18.52
2022-08-26T11:03:40.200Z,16.65
2022-08-26T11:08:47.953Z,13.68
2022-08-26T11:14:04.629Z,12.98
2022-08-26T11:19:09.901Z,13.23
2022-08-26T11:24:42.623Z,8.20
2022-08-26T11:30:02.689Z,13.00
2022-08-26T11:35:08.080Z,15.20
2022-08-26T11:40:15.387Z,24.10
2022-08-26T11:45:25.468Z,13.15
2022-08-26T11:50:30.101Z,12.48
2022-08-26T11:55:35.081Z,14.85
2022-08-26T12:00:52.449Z,12.00
2022-08-26T12:05:57.389Z,14.23
2022-08-26T12:11:07.046Z,13.32
2022-08-26T12:16:12.404Z,17.05
2022-08-26T12:21:24.304Z,19.15
2022-08-26T12:26:30.509Z,11.68
2022-08-26T12:31:37.484Z,11.45
2022-08-26T12:36:46.748Z,12.57
2022-08-26T12:41:52.722Z,16.08
2022-08-26T12:47:03.836Z,14.88
2022-08-26T12:52:09.115Z,14.40
2022-08-26T12:57:13.310Z,17.48
2022-08-26T13:02:39.912Z,12.48
2022-08-26T13:07:44.461Z,14.18
2022-08-26T13:12:48.242Z,9.95
2022-08-26T13:17:53.414Z,7.63
2022-08-26T13:22:59.396Z,8.88
2022-08-26T13:28:02.964Z,6.60
2022-08-26T13:33:08.807Z,15.07
2022-08-26T13:38:22.361Z,14.35
2022-08-26T13:43:37.227Z,18.55
2022-08-26T13:48:42.026Z,15.27
2022-08-26T13:53:48.552Z,15.95
2022-08-26T13:58:52.263Z,15.65
2022-08-26T14:03:57.235Z,10.88
2022-08-26T14:09:00.798Z,12.52
2022-08-26T14:14:04.245Z,10.48
2022-08-26T14:19:10.980Z,10.27
2022-08-26T14:24:14.424Z,9.77
2022-08-26T14:29:17.913Z,17.83
2022-08-26T14:34:22.777Z,22.20
2022-08-26T14:39:26.486Z,18.92
2022-08-26T14:44:32.668Z,6.28
2022-08-26T14:49:37.756Z,8.77
2022-08-26T14:54:41.250Z,12.68
2022-08-26T14:59:50.164Z,6.18
2022-08-26T15:04:55.177Z,15.57
2022-08-26T15:09:58.612Z,14.35
2022-08-26T15:15:02.132Z,14.38
2022-08-26T15:20:10.266Z,17.27
2022-08-26T15:25:13.861Z,10.50
2022-08-26T15:30:18.388Z,13.55
2022-08-26T15:35:23.588Z,9.57
2022-08-26T15:40:27.906Z,6.13
2022-08-26T15:45:33.886Z,5.78
2022-08-26T15:50:49.871Z,7.15
2022-08-26T15:55:56.312Z,10.38
2022-08-26T16:01:00.194Z,7.90
2022-08-26T16:06:05.329Z,6.93
2022-08-26T16:11:09.361Z,10.40
2022-08-26T16:16:13.641Z,13.50
2022-08-26T16:21:20.938Z,14.23
2022-08-26T16:26:27.567Z,12.93
2022-08-26T16:31:31.201Z,9.57
2022-08-26T16:36:36.522Z,17.30
2022-08-26T16:41:40.248Z,11.48
2022-08-26T16:46:43.767Z,13.10
2022-08-26T16:51:48.588Z,10.82
2022-08-26T16:56:52.031Z,12.82
2022-08-26T17:01:56.090Z,9.82
2022-08-26T17:07:01.350Z,14.38
2022-08-26T17:12:05.438Z,14.48
2022-08-26T17:17:09.237Z,17.52
2022-08-26T17:22:14.523Z,14.30
2022-08-26T17:27:17.987Z,15.45
2022-08-26T17:32:21.474Z,13.48
2022-08-26T17:37:26.381Z,13.10
2022-08-26T17:42:31.501Z,11.77
2022-08-26T17:47:35.919Z,12.38
2022-08-26T17:52:42.651Z,14.02
2022-08-26T17:57:53.539Z,10.13
2022-08-26T18:02:58.740Z,14.05
2022-08-26T18:08:03.887Z,8.68
2022-08-26T18:13:07.285Z,9.45
2022-08-26T18:18:11.173Z,11.98
2022-08-26T18:23:16.031Z,15.25
2022-08-26T18:28:19.730Z,11.18
2022-08-26T18:33:23.234Z,16.10
2022-08-26T18:38:28.457Z,19.77
2022-08-26T18:43:31.899Z,11.43
2022-08-26T18:48:36.820Z,18.08
2022-08-26T18:53:42.123Z,22.30
2022-08-26T18:58:45.811Z,27.20
2022-08-26T19:03:51.331Z,24.33
2022-08-26T19:08:58.199Z,15.88
2022-08-26T19:14:03.128Z,17.90
2022-08-26T19:19:07.537Z,31.88
2022-08-26T19:24:15.695Z,37.55
2022-08-26T19:29:19.239Z,39.83
2022-08-26T19:34:22.738Z,28.38
2022-08-26T19:39:28.146Z,29.38
2022-08-26T19:44:49.154Z,33.13
2022-08-26T19:49:55.481Z,33.83
2022-08-26T19:55:01.608Z,29.65
2022-08-26T20:00:10.427Z,40.38
2022-08-26T20:05:15.118Z,41.38
2022-08-26T20:10:22.658Z,59.28
2022-08-26T20:15:26.438Z,40.83
2022-08-26T20:20:49.226Z,47.72
2022-08-26T20:25:57.563Z,61.47
2022-08-26T20:31:02.121Z,50.38
2022-08-26T20:36:07.306Z,50.42
2022-08-26T20:41:12.516Z,57.05
2022-08-26T20:46:21.999Z,57.25
2022-08-26T20:51:28.260Z,57.03
2022-08-26T20:56:33.148Z,54.78
2022-08-26T21:01:42.028Z,54.58
2022-08-26T21:06:52.323Z,49.47
2022-08-26T21:11:57.811Z,51.28
2022-08-26T21:17:01.292Z,37.22
2022-08-26T21:22:05.561Z,55.35
2022-08-26T21:27:10.670Z,32.25
2022-08-26T21:32:15.759Z,30.83
2022-08-26T21:37:19.319Z,40.63
2022-08-26T21:42:25.416Z,28.10
2022-08-26T21:47:29.190Z,33.95
2022-08-26T21:52:32.901Z,28.33
2022-08-26T21:57:37.786Z,36.20
2022-08-26T22:02:41.398Z,50.50
2022-08-26T22:07:44.980Z,54.15
2022-08-26T22:12:49.839Z,47.95
2022-08-26T22:17:53.379Z,39.78
2022-08-26T22:22:57.146Z,28.17
2022-08-26T22:28:02.042Z,40.03
2022-08-26T22:33:07.289Z,73.82
2022-08-26T22:38:11.194Z,51.55
2022-08-26T22:43:16.545Z,42.97
2022-08-26T22:48:22.110Z,34.80
2022-08-26T22:53:25.919Z,31.02
2022-08-26T22:58:31.107Z,27.13
2022-08-26T23:03:35.510Z,38.15
2022-08-26T23:08:39.769Z,35.65
2022-08-26T23:13:44.945Z,28.92
2022-08-26T23:18:48.418Z,26.67
2022-08-26T23:23:52.101Z,32.10
2022-08-26T23:28:57.335Z,31.83
2022-08-26T23:34:18.378Z,25.50
2022-08-26T23:39:22.373Z,30.80
2022-08-26T23:44:27.198Z,35.13
2022-08-26T23:49:30.690Z,24.95
2022-08-26T23:54:34.547Z,39.60
2022-08-26T23:59:40.320Z,30.27
